Погода Казахна неделю

Гянджа-Казахский район, Азербайджан

14 - 20 июля
  • 14июля
    Сегодня
    +21°
    +36°
    Небольшая облачность
    ВремяПогодаТемператураВлажностьДавлениеВетер, м/сВероятность осадков
    01:00Ясно и безоблачно+26°C65 %723 мм1.9 м/с7 %
    04:00Небольшая облачность+24°C73 %724 мм1.2 м/с18 %
    07:00Практически безоблачно+24°C73 %724 мм0.9 м/с21 %
    10:00Облачно с прояснениями+28°C63 %725 мм1.4 м/с14 %
    13:00Небольшая облачность+32°C47 %724 мм2.9 м/с21 %
    16:00Небольшая облачность+35°C37 %723 мм3.9 м/с19 %
    19:00Практически безоблачно+34°C39 %723 мм3.1 м/с4 %
    22:00Ясно и безоблачно+28°C49 %724 мм2.3 м/с1 %
  • 15июля
    Понедельник
    +23°
    +36°
    Практически безоблачно
    ВремяПогодаТемператураВлажностьДавлениеВетер, м/сВероятность осадков
    01:00Практически безоблачно+26°C56 %724 мм0.5 м/с2 %
    04:00Практически безоблачно+23°C64 %724 мм1.7 м/с1 %
    07:00Практически безоблачно+23°C63 %725 мм0.7 м/с1 %
    10:00Ясно и безоблачно+28°C50 %726 мм1.1 м/с2 %
    13:00Практически безоблачно+33°C38 %725 мм1.8 м/с3 %
    16:00Практически безоблачно+35°C37 %724 мм2.6 м/с5 %
    19:00Практически безоблачно+35°C34 %724 мм2.0 м/с2 %
    22:00Ясно и безоблачно+28°C44 %724 мм2.0 м/с2 %
  • 16июля
    Вторник
    +25°
    +37°
    Небольшая облачность
    ВремяПогодаТемператураВлажностьДавлениеВетер, м/сВероятность осадков
    01:00Ясно и безоблачно+26°C53 %725 мм0.6 м/с2 %
    04:00Ясно и безоблачно+25°C47 %725 мм0.9 м/с2 %
    07:00Ясно и безоблачно+24°C58 %726 мм0.7 м/с2 %
    10:00Ясно и безоблачно+29°C45 %726 мм1.1 м/с2 %
    13:00Небольшая облачность+35°C36 %726 мм1.1 м/с4 %
    16:00Практически безоблачно+37°C30 %725 мм1.5 м/с4 %
    19:00Практически безоблачно+36°C42 %724 мм1.1 м/с2 %
    22:00Небольшая облачность+30°C43 %725 мм1.5 м/с2 %
  • 17июля
    Среда
    +24°
    +39°
    Ясно и безоблачно
    ВремяПогодаТемператураВлажностьДавлениеВетер, м/сВероятность осадков
    01:00Практически безоблачно+28°C50 %725 мм0.7 м/с2 %
    04:00Ясно и безоблачно+27°C48 %725 мм0.5 м/с2 %
    07:00Ясно и безоблачно+25°C59 %726 мм0.4 м/с2 %
    10:00Ясно и безоблачно+30°C44 %727 мм1.1 м/с2 %
    13:00Ясно и безоблачно+36°C34 %726 мм1.6 м/с2 %
    16:00Практически безоблачно+39°C27 %725 мм3.0 м/с2 %
    19:00Облачно с прояснениями+37°C32 %724 мм2.0 м/с3 %
    22:00Облачно с прояснениями+31°C40 %725 мм1.8 м/с11 %
  • 18июля
    Четверг
    +25°
    +37°
    Облачно с прояснениями
    ВремяПогодаТемператураВлажностьДавлениеВетер, м/сВероятность осадков
    01:00Облачно с прояснениями+30°C48 %725 мм0.6 м/с16 %
    04:00Небольшая облачность+27°C57 %726 мм1.9 м/с32 %
    07:00Облачно с прояснениями, небольшой дождь+25°C66 %726 мм0.5 м/с51 %
    10:00Практически безоблачно+29°C57 %727 мм1.9 м/с44 %
    13:00Облачно с прояснениями+34°C47 %726 мм1.9 м/с38 %
    16:00Облачно с прояснениями+36°C41 %725 мм2.5 м/с31 %
    19:00Небольшая облачность+35°C42 %725 мм2.2 м/с16 %
    22:00Небольшая облачность+28°C54 %725 мм1.6 м/с11 %
Мы используем cookies
Соглашаюсь